sensor_id;sensor_type;location;lat;lon;timestamp;temperature;humidity
63371;DHT22;49504;48.336;14.472;2023-05-17T00:00:06;24.70;53.20
63371;DHT22;49504;48.336;14.472;2023-05-17T00:03:28;24.70;53.20
63371;DHT22;49504;48.336;14.472;2023-05-17T00:06:49;24.70;53.20
63371;DHT22;49504;48.336;14.472;2023-05-17T00:10:10;24.60;53.10
63371;DHT22;49504;48.336;14.472;2023-05-17T00:13:33;24.70;53.10
63371;DHT22;49504;48.336;14.472;2023-05-17T00:16:54;24.60;53.00
63371;DHT22;49504;48.336;14.472;2023-05-17T00:21:51;24.60;52.40
63371;DHT22;49504;48.336;14.472;2023-05-17T00:25:12;24.60;53.80
63371;DHT22;49504;48.336;14.472;2023-05-17T00:28:33;24.60;53.00
63371;DHT22;49504;48.336;14.472;2023-05-17T00:31:54;24.60;53.10
63371;DHT22;49504;48.336;14.472;2023-05-17T00:35:16;24.60;53.10
63371;DHT22;49504;48.336;14.472;2023-05-17T00:38:40;24.60;53.10
63371;DHT22;49504;48.336;14.472;2023-05-17T00:42:01;24.60;53.00
63371;DHT22;49504;48.336;14.472;2023-05-17T00:45:22;24.60;53.00
63371;DHT22;49504;48.336;14.472;2023-05-17T00:48:43;24.60;53.00
63371;DHT22;49504;48.336;14.472;2023-05-17T00:52:05;24.60;53.10
63371;DHT22;49504;48.336;14.472;2023-05-17T00:55:28;24.60;53.00
63371;DHT22;49504;48.336;14.472;2023-05-17T00:58:50;24.60;53.00
63371;DHT22;49504;48.336;14.472;2023-05-17T01:02:11;24.60;53.00
63371;DHT22;49504;48.336;14.472;2023-05-17T01:05:34;24.60;53.00
63371;DHT22;49504;48.336;14.472;2023-05-17T01:08:56;24.60;53.00
63371;DHT22;49504;48.336;14.472;2023-05-17T01:12:36;24.60;52.40
63371;DHT22;49504;48.336;14.472;2023-05-17T01:16:09;24.60;52.90
63371;DHT22;49504;48.336;14.472;2023-05-17T01:19:52;24.60;53.00
63371;DHT22;49504;48.336;14.472;2023-05-17T01:23:34;24.60;52.90
63371;DHT22;49504;48.336;14.472;2023-05-17T01:27:02;24.60;52.90
63371;DHT22;49504;48.336;14.472;2023-05-17T01:30:25;24.60;53.10
63371;DHT22;49504;48.336;14.472;2023-05-17T01:33:47;24.60;52.90
63371;DHT22;49504;48.336;14.472;2023-05-17T01:37:08;24.60;53.00
63371;DHT22;49504;48.336;14.472;2023-05-17T01:40:33;24.60;53.10
63371;DHT22;49504;48.336;14.472;2023-05-17T01:44:01;24.60;53.10
63371;DHT22;49504;48.336;14.472;2023-05-17T01:47:32;24.60;53.00
63371;DHT22;49504;48.336;14.472;2023-05-17T01:51:00;24.60;53.00
63371;DHT22;49504;48.336;14.472;2023-05-17T01:54:25;24.60;53.10
63371;DHT22;49504;48.336;14.472;2023-05-17T01:58:06;24.60;53.10
63371;DHT22;49504;48.336;14.472;2023-05-17T02:01:30;24.50;53.10
63371;DHT22;49504;48.336;14.472;2023-05-17T02:04:52;24.60;53.10
63371;DHT22;49504;48.336;14.472;2023-05-17T02:08:13;24.60;53.20
63371;DHT22;49504;48.336;14.472;2023-05-17T02:11:35;24.60;53.10
63371;DHT22;49504;48.336;14.472;2023-05-17T02:14:56;24.60;53.00
63371;DHT22;49504;48.336;14.472;2023-05-17T02:18:18;24.60;53.10
63371;DHT22;49504;48.336;14.472;2023-05-17T02:21:40;24.60;53.10
63371;DHT22;49504;48.336;14.472;2023-05-17T02:25:01;24.60;53.10
63371;DHT22;49504;48.336;14.472;2023-05-17T02:28:22;24.60;53.40
63371;DHT22;49504;48.336;14.472;2023-05-17T02:31:43;24.50;53.00
63371;DHT22;49504;48.336;14.472;2023-05-17T02:35:07;24.60;53.10
63371;DHT22;49504;48.336;14.472;2023-05-17T02:38:28;24.50;53.00
63371;DHT22;49504;48.336;14.472;2023-05-17T02:41:49;24.60;53.10
63371;DHT22;49504;48.336;14.472;2023-05-17T02:46:14;24.60;52.50
63371;DHT22;49504;48.336;14.472;2023-05-17T02:49:35;24.60;53.10
63371;DHT22;49504;48.336;14.472;2023-05-17T02:52:57;24.60;53.10
63371;DHT22;49504;48.336;14.472;2023-05-17T02:57:55;24.50;52.40
63371;DHT22;49504;48.336;14.472;2023-05-17T03:01:17;24.50;53.00
63371;DHT22;49504;48.336;14.472;2023-05-17T03:04:39;24.50;53.10
63371;DHT22;49504;48.336;14.472;2023-05-17T03:08:00;24.50;53.10
63371;DHT22;49504;48.336;14.472;2023-05-17T03:11:21;24.50;53.00
63371;DHT22;49504;48.336;14.472;2023-05-17T03:15:27;24.50;52.40
63371;DHT22;49504;48.336;14.472;2023-05-17T03:18:48;24.50;53.10
63371;DHT22;49504;48.336;14.472;2023-05-17T03:22:09;24.50;53.10
63371;DHT22;49504;48.336;14.472;2023-05-17T03:25:31;24.50;53.00
63371;DHT22;49504;48.336;14.472;2023-05-17T03:31:07;24.50;52.50
63371;DHT22;49504;48.336;14.472;2023-05-17T03:34:29;24.50;53.00
63371;DHT22;49504;48.336;14.472;2023-05-17T03:37:50;24.50;53.00
63371;DHT22;49504;48.336;14.472;2023-05-17T03:41:12;24.50;53.00
63371;DHT22;49504;48.336;14.472;2023-05-17T03:44:34;24.50;53.10
63371;DHT22;49504;48.336;14.472;2023-05-17T03:47:58;24.50;53.10
63371;DHT22;49504;48.336;14.472;2023-05-17T03:51:21;24.50;53.10
63371;DHT22;49504;48.336;14.472;2023-05-17T03:54:42;24.50;53.10
63371;DHT22;49504;48.336;14.472;2023-05-17T03:58:03;24.50;53.00
63371;DHT22;49504;48.336;14.472;2023-05-17T04:01:24;24.50;53.00
63371;DHT22;49504;48.336;14.472;2023-05-17T04:06:14;24.50;52.50
63371;DHT22;49504;48.336;14.472;2023-05-17T04:09:36;24.50;53.10
63371;DHT22;49504;48.336;14.472;2023-05-17T04:13:05;24.50;53.00
63371;DHT22;49504;48.336;14.472;2023-05-17T04:16:27;24.50;53.10
63371;DHT22;49504;48.336;14.472;2023-05-17T04:19:49;24.50;52.80
63371;DHT22;49504;48.336;14.472;2023-05-17T04:23:12;24.50;52.80
63371;DHT22;49504;48.336;14.472;2023-05-17T04:26:33;24.50;52.70
63371;DHT22;49504;48.336;14.472;2023-05-17T04:29:55;24.50;52.60
63371;DHT22;49504;48.336;14.472;2023-05-17T04:33:16;24.50;52.80
63371;DHT22;49504;48.336;14.472;2023-05-17T04:36:37;24.50;53.30
63371;DHT22;49504;48.336;14.472;2023-05-17T04:40:00;24.40;52.50
63371;DHT22;49504;48.336;14.472;2023-05-17T04:43:23;24.50;52.90
63371;DHT22;49504;48.336;14.472;2023-05-17T04:46:45;24.50;52.10
63371;DHT22;49504;48.336;14.472;2023-05-17T04:51:06;24.50;51.90
63371;DHT22;49504;48.336;14.472;2023-05-17T04:57:25;24.40;52.00
63371;DHT22;49504;48.336;14.472;2023-05-17T05:01:48;24.50;52.00
63371;DHT22;49504;48.336;14.472;2023-05-17T05:05:10;24.50;52.40
63371;DHT22;49504;48.336;14.472;2023-05-17T05:08:32;24.40;52.50
63371;DHT22;49504;48.336;14.472;2023-05-17T05:11:54;24.40;52.50
63371;DHT22;49504;48.336;14.472;2023-05-17T05:15:15;24.40;52.30
63371;DHT22;49504;48.336;14.472;2023-05-17T05:18:44;24.40;52.30
63371;DHT22;49504;48.336;14.472;2023-05-17T05:22:05;24.40;52.30
63371;DHT22;49504;48.336;14.472;2023-05-17T05:25:29;24.40;52.20
63371;DHT22;49504;48.336;14.472;2023-05-17T05:28:50;24.40;52.40
63371;DHT22;49504;48.336;14.472;2023-05-17T05:34:28;24.40;51.80
63371;DHT22;49504;48.336;14.472;2023-05-17T05:37:49;24.40;52.10
63371;DHT22;49504;48.336;14.472;2023-05-17T05:41:11;24.40;52.10
63371;DHT22;49504;48.336;14.472;2023-05-17T05:44:32;24.40;52.20
63371;DHT22;49504;48.336;14.472;2023-05-17T05:47:54;24.40;52.30
63371;DHT22;49504;48.336;14.472;2023-05-17T05:51:16;24.40;52.40
63371;DHT22;49504;48.336;14.472;2023-05-17T05:54:39;24.40;52.40
63371;DHT22;49504;48.336;14.472;2023-05-17T05:58:00;24.40;52.50
63371;DHT22;49504;48.336;14.472;2023-05-17T06:01:22;24.40;52.50
63371;DHT22;49504;48.336;14.472;2023-05-17T06:04:43;24.40;52.50
63371;DHT22;49504;48.336;14.472;2023-05-17T06:08:06;24.40;52.60
63371;DHT22;49504;48.336;14.472;2023-05-17T06:11:27;24.40;52.50
63371;DHT22;49504;48.336;14.472;2023-05-17T06:14:48;24.30;52.50
63371;DHT22;49504;48.336;14.472;2023-05-17T06:20:58;24.30;51.90
63371;DHT22;49504;48.336;14.472;2023-05-17T06:24:19;24.30;52.50
63371;DHT22;49504;48.336;14.472;2023-05-17T06:27:40;24.30;52.50
63371;DHT22;49504;48.336;14.472;2023-05-17T06:31:01;24.30;52.50
63371;DHT22;49504;48.336;14.472;2023-05-17T06:34:22;24.40;52.50
63371;DHT22;49504;48.336;14.472;2023-05-17T06:37:45;24.30;52.50
63371;DHT22;49504;48.336;14.472;2023-05-17T06:41:06;24.30;52.40
63371;DHT22;49504;48.336;14.472;2023-05-17T06:44:28;24.30;52.40
63371;DHT22;49504;48.336;14.472;2023-05-17T06:47:49;24.30;52.30
63371;DHT22;49504;48.336;14.472;2023-05-17T06:52:12;24.30;51.80
63371;DHT22;49504;48.336;14.472;2023-05-17T06:55:34;24.30;52.60
63371;DHT22;49504;48.336;14.472;2023-05-17T06:58:56;24.30;52.50
63371;DHT22;49504;48.336;14.472;2023-05-17T07:02:18;24.30;52.60
63371;DHT22;49504;48.336;14.472;2023-05-17T07:05:39;24.30;52.50
63371;DHT22;49504;48.336;14.472;2023-05-17T07:09:02;24.30;52.40
63371;DHT22;49504;48.336;14.472;2023-05-17T07:12:23;24.30;52.30
63371;DHT22;49504;48.336;14.472;2023-05-17T07:15:53;24.30;51.70
63371;DHT22;49504;48.336;14.472;2023-05-17T07:19:15;24.30;52.30
63371;DHT22;49504;48.336;14.472;2023-05-17T07:22:37;24.30;52.30
63371;DHT22;49504;48.336;14.472;2023-05-17T07:25:58;24.30;52.30
63371;DHT22;49504;48.336;14.472;2023-05-17T07:29:19;24.30;52.30
63371;DHT22;49504;48.336;14.472;2023-05-17T07:32:41;24.30;52.20
63371;DHT22;49504;48.336;14.472;2023-05-17T07:36:03;24.20;52.20
63371;DHT22;49504;48.336;14.472;2023-05-17T07:39:25;24.20;52.10
63371;DHT22;49504;48.336;14.472;2023-05-17T07:42:47;24.30;52.20
63371;DHT22;49504;48.336;14.472;2023-05-17T07:46:08;24.20;52.00
63371;DHT22;49504;48.336;14.472;2023-05-17T07:49:31;24.30;52.10
63371;DHT22;49504;48.336;14.472;2023-05-17T07:52:52;24.20;52.00
63371;DHT22;49504;48.336;14.472;2023-05-17T07:56:13;24.20;52.00
63371;DHT22;49504;48.336;14.472;2023-05-17T07:59:34;24.20;52.00
63371;DHT22;49504;48.336;14.472;2023-05-17T08:02:55;24.20;52.00
63371;DHT22;49504;48.336;14.472;2023-05-17T08:06:18;24.20;52.00
63371;DHT22;49504;48.336;14.472;2023-05-17T08:09:39;24.20;52.00
63371;DHT22;49504;48.336;14.472;2023-05-17T08:15:09;24.20;51.60
63371;DHT22;49504;48.336;14.472;2023-05-17T08:18:30;24.20;51.90
63371;DHT22;49504;48.336;14.472;2023-05-17T08:21:51;24.20;51.90
63371;DHT22;49504;48.336;14.472;2023-05-17T08:25:12;24.20;51.90
63371;DHT22;49504;48.336;14.472;2023-05-17T08:28:34;24.20;51.90
63371;DHT22;49504;48.336;14.472;2023-05-17T08:31:56;24.20;51.90
63371;DHT22;49504;48.336;14.472;2023-05-17T08:38:10;24.20;51.50
63371;DHT22;49504;48.336;14.472;2023-05-17T08:41:34;24.20;51.90
63371;DHT22;49504;48.336;14.472;2023-05-17T08:44:58;24.20;51.90
63371;DHT22;49504;48.336;14.472;2023-05-17T08:48:19;24.20;51.80
63371;DHT22;49504;48.336;14.472;2023-05-17T08:51:41;24.20;51.80
63371;DHT22;49504;48.336;14.472;2023-05-17T08:55:06;24.20;51.80
63371;DHT22;49504;48.336;14.472;2023-05-17T08:58:32;24.20;51.80
63371;DHT22;49504;48.336;14.472;2023-05-17T09:01:54;24.20;51.70
63371;DHT22;49504;48.336;14.472;2023-05-17T09:09:41;24.20;51.30
63371;DHT22;49504;48.336;14.472;2023-05-17T09:13:02;24.20;51.80
63371;DHT22;49504;48.336;14.472;2023-05-17T09:16:23;24.20;51.70
63371;DHT22;49504;48.336;14.472;2023-05-17T09:19:45;24.20;51.80
63371;DHT22;49504;48.336;14.472;2023-05-17T09:26:04;24.20;51.40
63371;DHT22;49504;48.336;14.472;2023-05-17T09:29:26;24.20;51.90
63371;DHT22;49504;48.336;14.472;2023-05-17T09:32:50;24.20;51.90
63371;DHT22;49504;48.336;14.472;2023-05-17T09:36:15;24.20;52.00
63371;DHT22;49504;48.336;14.472;2023-05-17T09:39:37;24.20;52.00
63371;DHT22;49504;48.336;14.472;2023-05-17T09:43:00;24.20;52.10
63371;DHT22;49504;48.336;14.472;2023-05-17T09:46:21;24.20;52.10
63371;DHT22;49504;48.336;14.472;2023-05-17T09:49:43;24.20;52.00
63371;DHT22;49504;48.336;14.472;2023-05-17T09:53:04;24.20;52.20
63371;DHT22;49504;48.336;14.472;2023-05-17T09:56:27;24.20;52.10
63371;DHT22;49504;48.336;14.472;2023-05-17T09:59:50;24.20;52.20
63371;DHT22;49504;48.336;14.472;2023-05-17T10:03:14;24.20;52.20
63371;DHT22;49504;48.336;14.472;2023-05-17T10:06:38;24.20;52.30
63371;DHT22;49504;48.336;14.472;2023-05-17T10:09:59;24.20;52.30
63371;DHT22;49504;48.336;14.472;2023-05-17T10:13:23;24.20;52.20
63371;DHT22;49504;48.336;14.472;2023-05-17T10:16:51;24.20;52.30
63371;DHT22;49504;48.336;14.472;2023-05-17T10:20:14;24.20;52.10
63371;DHT22;49504;48.336;14.472;2023-05-17T10:23:36;24.20;52.20
63371;DHT22;49504;48.336;14.472;2023-05-17T10:28:29;24.20;51.70
63371;DHT22;49504;48.336;14.472;2023-05-17T10:31:50;24.20;52.20
63371;DHT22;49504;48.336;14.472;2023-05-17T10:35:13;24.20;52.20
63371;DHT22;49504;48.336;14.472;2023-05-17T10:38:35;24.20;52.10
63371;DHT22;49504;48.336;14.472;2023-05-17T10:41:56;24.20;52.10
63371;DHT22;49504;48.336;14.472;2023-05-17T10:45:22;24.10;52.10
63371;DHT22;49504;48.336;14.472;2023-05-17T10:48:47;24.20;52.10
63371;DHT22;49504;48.336;14.472;2023-05-17T10:52:11;24.10;52.10
63371;DHT22;49504;48.336;14.472;2023-05-17T10:55:38;24.20;52.10
63371;DHT22;49504;48.336;14.472;2023-05-17T10:59:17;24.20;51.60
63371;DHT22;49504;48.336;14.472;2023-05-17T11:02:43;24.10;51.50
63371;DHT22;49504;48.336;14.472;2023-05-17T11:06:12;24.20;52.00
63371;DHT22;49504;48.336;14.472;2023-05-17T11:09:34;24.20;52.10
63371;DHT22;49504;48.336;14.472;2023-05-17T11:12:56;24.20;52.20
63371;DHT22;49504;48.336;14.472;2023-05-17T11:16:20;24.20;52.20
63371;DHT22;49504;48.336;14.472;2023-05-17T11:19:54;24.20;52.30
63371;DHT22;49504;48.336;14.472;2023-05-17T11:23:16;24.20;52.30
63371;DHT22;49504;48.336;14.472;2023-05-17T11:26:39;24.20;52.30
63371;DHT22;49504;48.336;14.472;2023-05-17T11:30:15;24.20;52.40
63371;DHT22;49504;48.336;14.472;2023-05-17T11:33:38;24.20;52.30
63371;DHT22;49504;48.336;14.472;2023-05-17T11:37:09;24.20;52.30
63371;DHT22;49504;48.336;14.472;2023-05-17T11:40:31;24.20;52.40
63371;DHT22;49504;48.336;14.472;2023-05-17T11:43:52;24.20;52.50
63371;DHT22;49504;48.336;14.472;2023-05-17T11:47:14;24.20;52.40
63371;DHT22;49504;48.336;14.472;2023-05-17T11:50:35;24.20;52.10
63371;DHT22;49504;48.336;14.472;2023-05-17T11:53:59;24.20;51.70
63371;DHT22;49504;48.336;14.472;2023-05-17T11:57:20;24.20;51.70
63371;DHT22;49504;48.336;14.472;2023-05-17T12:00:50;24.20;51.60
63371;DHT22;49504;48.336;14.472;2023-05-17T12:04:12;24.20;51.60
63371;DHT22;49504;48.336;14.472;2023-05-17T12:12:09;24.20;51.30
63371;DHT22;49504;48.336;14.472;2023-05-17T12:15:31;24.20;51.40
63371;DHT22;49504;48.336;14.472;2023-05-17T12:18:54;24.20;51.30
63371;DHT22;49504;48.336;14.472;2023-05-17T12:22:16;24.20;51.30
63371;DHT22;49504;48.336;14.472;2023-05-17T12:25:37;24.20;51.40
63371;DHT22;49504;48.336;14.472;2023-05-17T12:29:00;24.20;51.40
63371;DHT22;49504;48.336;14.472;2023-05-17T12:32:21;24.30;51.40
63371;DHT22;49504;48.336;14.472;2023-05-17T12:35:43;24.30;51.50
63371;DHT22;49504;48.336;14.472;2023-05-17T12:39:05;24.30;51.40
63371;DHT22;49504;48.336;14.472;2023-05-17T12:42:27;24.30;51.50
63371;DHT22;49504;48.336;14.472;2023-05-17T12:45:51;24.30;51.30
63371;DHT22;49504;48.336;14.472;2023-05-17T12:49:12;24.40;51.40
63371;DHT22;49504;48.336;14.472;2023-05-17T12:52:34;24.30;51.10
63371;DHT22;49504;48.336;14.472;2023-05-17T12:56:00;24.40;51.20
63371;DHT22;49504;48.336;14.472;2023-05-17T12:59:22;24.40;51.10
63371;DHT22;49504;48.336;14.472;2023-05-17T13:02:45;24.40;51.20
63371;DHT22;49504;48.336;14.472;2023-05-17T13:06:07;24.40;51.20
63371;DHT22;49504;48.336;14.472;2023-05-17T13:09:32;24.40;51.20
63371;DHT22;49504;48.336;14.472;2023-05-17T13:12:56;24.40;51.20
63371;DHT22;49504;48.336;14.472;2023-05-17T13:16:28;24.40;51.00
63371;DHT22;49504;48.336;14.472;2023-05-17T13:19:58;24.40;51.10
63371;DHT22;49504;48.336;14.472;2023-05-17T13:23:21;24.40;51.30
63371;DHT22;49504;48.336;14.472;2023-05-17T13:26:45;24.40;51.00
63371;DHT22;49504;48.336;14.472;2023-05-17T13:30:24;24.40;50.20
63371;DHT22;49504;48.336;14.472;2023-05-17T13:33:51;24.40;50.60
63371;DHT22;49504;48.336;14.472;2023-05-17T13:38:29;24.40;50.40
63371;DHT22;49504;48.336;14.472;2023-05-17T13:42:02;24.40;50.90
63371;DHT22;49504;48.336;14.472;2023-05-17T13:45:24;24.40;51.10
63371;DHT22;49504;48.336;14.472;2023-05-17T13:48:45;24.40;50.90
63371;DHT22;49504;48.336;14.472;2023-05-17T13:52:06;24.40;51.00
63371;DHT22;49504;48.336;14.472;2023-05-17T13:55:29;24.40;50.70
63371;DHT22;49504;48.336;14.472;2023-05-17T13:58:50;24.40;50.70
